woensdag 26 februari 2020 | Home | Bestenlijsten | Bestenlijsten NL | Calculators | Nieuws | Records | Uitslagen | Videos | Wedstrijden | VZA Ranglijsten | Weer |
 
Recent nieuws meer nieuws
18-01: Nog dieper graven over het meten van afstand met GPS door deelnemers
17-01: Voor de 9e keer Kapellecross
03-01: Nogmaals over vermeende PR's en onzorgvuldig gemeten afstanden
28-12: Wel of geen PR op Tien Mijl in Barendrecht?
18-12: De hardloopnieuwsresten van 2019
27-11: Concurrentie bij het hardlopen
Wedstrijdagenda meer wedstrijden
za 29-02: Scheldeloop Terneuzen
za 29-02: 31e Kustcross Vlissingen
za 07-03: Krokusloop Hulst
za 07-03: 53e Massaloop Oostkapelle
zo 08-03: 45e CPC Loop Den Haag
zo 08-03: 4e Natuurloop Cadzand-Bad
za 14-03: 48e Pannekoekloop Westenschouwen
zo 15-03: 27e Zwinstedenloop Sluis
zo 15-03: 32e Parelloop Brunssum
za 21-03: Corn Boys Loop Sas van Gent
za 21-03: 9e Ronde van BRU Bruinisse
zo 22-03: 60 km van Walcheren Vlissingen
za 28-03: 25 km van Hulst
zo 29-03: 15e Venloop
Recente uitslagen
  meer uitslagen
zo 23-02: 3e Natuurloop Cadzand-Bad
zo 23-02: 9e Kapellecross Kapelle-Biezelinge
zo 23-02: Bosbokkentrail Westenschouwen
za 22-02: Halve Marathon Axel
za 15-02: 15e Zwaarste 10 van Zeeland Westenschouwen (227)
za 08-02: Erpelkappersloop Axel (140)
za 08-02: Grevelingen cross Bruinisse (115)
zo 02-02: 29e Midwinter Halve Marathon Cadzand (391)
za 01-02: 22e Rammekensloop Ritthem (267)
za 25-01: 6e Scheldesport cross Westdorpe (85)
za 18-01: Dow trimloop Terneuzen (88)
 
Zoek tenminste met 3 tekens van wedstrijd, datum, plaats of atleet

1e Dow trimloop

Terneuzen, zaterdag 24 januari 2015 - Organisatie: Jogging Club Dow
15.6 km
PltsNaam
Tijdkm/umin/kmm/secgap
1  Sander PostTerneuzen55.34minMse   16.845  3:344.68-
2  Alexander VanwalleghemVeldegem59.53minMse   15.630  3:504.34+4:19
3  Dennis FlorussenTerneuzen1.00.15minMse   15.535  3:524.32+4:41
4  Martijn KoxWestdorpe1.02.57minMse   14.869  4:024.13+7:23
5  Andres de WitteTerneuzen1.05.56minMse   14.196  4:143.94+10:22
6  Niki BogaertWaasmunster1.05.57minVse   14.193  4:143.94+10:23
7  Nico RosWaarschoot1.08.47minMse   13.608  4:253.78+13:13
8  Theo RoelsKloosterzande1.08.50minMse   13.598  4:253.78+13:16
9  Leo BrackeAxel1.08.52minMse   13.591  4:253.78+13:18
10  Rudy MichielsOosterzele1.09.22minMse   13.494  4:273.75+13:48
11  Cathy PoppeTerneuzen1.09.30minVse   13.468  4:273.74+13:56
12  Geerd de RijckStekene1.09.33minMse   13.458  4:283.74+13:59
13  Marcel AdriaanseMiddelburg1.09.44minMse   13.423  4:283.73+14:10
14  Frans VerwilligenHulst1.11.23minMse   13.112  4:353.64+15:49
15  Michael de MoorEvergem1.12.45minMse   12.866  4:403.57+17:11
16  Hans KolbeekTerneuzen1.12.49minMse   12.854  4:403.57+17:15
17  Evert KuijkTerneuzen1.13.04minM45   12.810  4:413.56+17:30
18  Marc WelvaertOosteeklo1.14.09minMse   12.623  4:453.51+18:35
19  Ferdie de KlerkTerneuzen1.14.45minMse   12.522  4:483.48+19:11
20  Guy van SeverenLovendegem1.14.51minMse   12.505  4:483.47+19:17
21  Reni VinkTerneuzen1.18.29minMse   11.926  5:023.31+22:55
22  Patrick VervaetSint Jansteen1.18.34minM40   11.913  5:023.31+23:00
23  Pascal van HulleMaldegem1.18.45minMse   11.886  5:033.30+23:11
24  Dirk van den HoeckeZaamslag1.19.01minMse   11.846  5:043.29+23:27
25  Imo JongepierNieuw- en Sint Joosland1.19.20minMse   11.798  5:053.28+23:46
26  Age BaltSint Jansteen1.19.37minMse   11.756  5:063.27+24:03
27  Jos van GrembergheStekene1.20.06minMse   11.685  5:083.25+24:32
28  Willem de BlockTerneuzen1.20.33minMse   11.620  5:103.23+24:59
29  Jacques ZamanTerneuzen1.20.38minMse   11.608  5:103.22+25:04
30  Harry DurinckKoewacht1.22.17minMse   11.375  5:163.16+26:43
31  Piet de ZeeuwTerneuzen1.22.21minMse   11.366  5:173.16+26:47
32  Ko de KoeyerZaamslag1.23.24minMse   11.223  5:213.12+27:50
33  Menno van HoepenTerneuzen1.24.41minMse   11.053  5:263.07+29:07
34  Wim LockefeirNieuw-Namen1.25.42minMse   10.922  5:303.03+30:08
35  Sergi van der PolVlissingen1.26.48minMse   10.783  5:343.00+31:14
36  Romain BolssensKieldrecht1.27.52minMse   10.653  5:382.96+32:18
37  Rudy van de VeldeWachtebeke1.28.25minMse   10.586  5:402.94+32:51
38  Louis van der SteenGent1.28.35minMse   10.566  5:412.94+33:01
39  Linda VangoolSint-Kruis-Winkel1.29.09minVse   10.499  5:432.92+33:35
40  Maurice DhaeseLokeren1.29.13minMse   10.491  5:432.91+33:39
41  Els ZweistraTerneuzen1.29.48minVse   10.423  5:452.90+34:14
42  Carlos De WillemackerAalter1.29.52minMse   10.415  5:462.89+34:18
43  Antoine MathysDe Pinte1.29.58minMse   10.404  5:462.89+34:24
Mannen: 39 (90.7%) => M40=1 - M45=1 - Mse=37
Vrouwen: 4 (9.3%) => Vse=4

Overzicht Top3, winnares en aantal deelnemers van aanwezige edities

JaarWinnaarTijd2eTijd 3eTijdWinnaresTijd#

15 km

2020Erwin Harmes51:49Mark Verhage53:41Pieterjan de Bosscher54:40Carmen Bogaert1:15:5345

15.6 km

2019Sander Post54:48Sander d'Hont55:22Sander van Doorn58:02Monica Sanderse1:00:1242
2018Sander Post55:02Sander van Doorn58:51Tom Janssens1:00:08Adinda Vetsuypens1:07:4444

15 km

2017Sander Post54:34Wim Vercruyssen59:37Henk de Brauwer59:55Martine Boute1:12:5845

15.6 km

2016Sander Post54:01Remy Vasseur56:30Patrick Hembrecht58:06Martine Boute1:10:5650
2015Sander Post55:34Alexander Vanwalleghem59:53Dennis Florussen1:00:15Niki Bogaert1:05:5743
2014Henk de Brauwer55:10Thijs Planckaert55:17Jopie van Brandt56:10Katrien Lievens1:04:4552
10.4 km
PltsNaam
Tijdkm/umin/kmm/secgap
1  Francesko DegrooteGent36.08minMse   17.269  3:284.80-
2  Frederque LotinGent37.20minMse   16.714  3:354.64+1:12
3  Ronny WagenaerMelsele39.59minMse   15.607  3:514.34+3:51
4  Dirk van BunderHulst41.31minMse   15.030  4:004.18+5:23
5  Tony DemaretSint-Kruis-Winkel42.34minMse   14.659  4:064.07+6:26
6  Kurt SchreyenEvergem43.42minMse   14.279  4:123.97+7:34
7  Dimitri MevensenOverslag44.18minMse   14.086  4:163.91+8:10
8  Douwe WortmanAxel44.56minMse   13.887  4:193.86+8:48
9  Frank SchoofDestelbergen45.37minMse   13.679  4:233.80+9:29
10  Luc RogiersLede45.40minMse   13.664  4:233.80+9:32
11  Rudi de Caluw√©Sas van Gent45.48minMse   13.624  4:243.78+9:40
12  Irma KarahotkaZottegem46.15minVse   13.492  4:273.75+10:07
13  Stefan van DammeTerneuzen46.46minMse   13.343  4:303.71+10:38
14  Rony AdriaenssensLokeren49.02minMse   12.726  4:433.54+12:54
15  Leo KaijserTerneuzen49.08minMse   12.700  4:433.53+13:00
16  Bennie BouterseTerneuzen49.11minMse   12.687  4:443.52+13:03
17  Marc de BaetsHeusden49.41minMse   12.560  4:473.49+13:33
18  Jacco LucasseZaamslag50.54minMse   12.259  4:543.41+14:46
19  Wanda ZegersTerneuzen52.05minVse   11.981  5:003.33+15:57
20  Aureel LippensWaarschoot55.30minMse   11.243  5:203.12+19:22
21  Nic VerkinderenGent55.32minMse   11.236  5:203.12+19:24
22  Gerard KlapwijkAxel56.22minMse   11.070  5:253.08+20:14
23  Gerrit LangenbergSluiskil56.55minMse   10.963  5:283.05+20:47
24  Carla ZegersKoewacht57.09minV45   10.919  5:303.03+21:01
25  Willem van der HeydenKieldrecht57.31minMse   10.849  5:323.01+21:23
26  Kimberley van WaesbergheSint-Pauwels57.32minVse   10.846  5:323.01+21:24
27  Pierre TondeleirLaarne57.59minMse   10.762  5:352.99+21:51
28  Hubert RoelsKloosterzande58.26minMse   10.679  5:372.97+22:18
29  Gisela NijsseOud-Sabbinge58.41minVse   10.633  5:392.95+22:33
30  Marian van VorenTerneuzen58.43minVse   10.627  5:392.95+22:35
31  Rene NijsseOud-Sabbinge58.47minMse   10.615  5:392.95+22:39
32  Norbert IngelsEvergem1.00.31minMse   10.311  5:492.86+24:23
33  Rudi van WaesbergheSint-Pauwels1.01.01minMse   10.227  5:522.84+24:53
34  Greet LangenbergSluiskil1.01.36minVse   10.130  5:552.81+25:28
35  Linda KielTerneuzen1.04.01minV45   9.747  6:092.71+27:53
36  Dick VerhelstZaamslag1.10.49minMse   8.811  6:492.45+34:41
37  Greta de VylderSint-Gillis-Waas1.12.22minVse   8.623  6:582.40+36:14
Mannen: 28 (75.68%) => Mse=28
Vrouwen: 9 (24.32%) => V45=2 - Vse=7

Snelheid en tempo zijn berekend op de vermelde afstand. Bij een onjuiste afstand wijken deze uiteraard af!

Fouten melden via info@atletiekzeeland.nl Categorie fout? Mail dan geboortedatum. (geldt alleen voor Zeeuwen)

De server had 0.195 seconden nodig om deze lijst met 80 prestaties samen te stellen.

Terug naar boven


 
Laatste reactie:
Jan Roose: Voor De 9e Keer Kapellecross..
Recente Zeeuwse prestaties meer prestaties
23-02: NK indoor Senioren Apeldoorn (1)
3000 m Marijke de Visser (PR 9.34.73)9.52.78  Vse
22-02: BK indoor studenten Gent (2)
1500 m Wouter Verstraate (PR 4.09.34)4.12.05  Mse
800 m Jasper Zuidhof (debuut)2.02.08  Mse
15-02: NK indoor A/B-junioren Apeldoorn (2)
3000 m Bezuayehu Petersen (PR)9.01.49  JoA
3000 m Bereket Petersen (PR 8.53.28)9.06.46  JoA
26-01: Indoormeeting Gent (2)
19-01: Kievitloop Bergen op Zoom (11)
19-01: Marathon Funchal (3)
12-01: 48e Halve van Egmond  (21)
Atletiek Zeeland © 2020